Nearby METAR Reports

 

KDLS - The Dalles, Oregon, USA
Distance from station: NNE 2mi, 3km
Updated: Sun, 18-Aug-2019 9:53am PDT
Clear
Clear
 Wind from NNW
Wind: NNW 7 mph , 11 km/h
Temperature: 72°F , 22°C
Dew Point: 54°F , 12°C
Humidity: 53%
Barometer: 29.81 inHg , 1009.5 hPa
Clouds: Clear
2019/08/18 16:53 KDLS 181653Z AUTO 34006KT CLR 22/12 A2981 RMK AO2 SLP095 T02170117 $
KTTD - Troutdale, Oregon, USA
Distance from station: W 60mi, 96km
Updated: Sun, 18-Aug-2019 9:53am PDT
Overcast
Overcast
 Wind from calm
Wind: Calm
Temperature: 64°F , 18°C
Dew Point: 55°F , 13°C
Humidity: 73%
Barometer: 29.89 inHg , 1012.2 hPa
Clouds: Overcast
Visibility: 10 miles , 16 km
Cloud details: Mostly cloudy 1200 ft
Overcast 3000 ft
2019/08/18 16:53 KTTD 181653Z 00000KT 10SM BKN012 OVC030 18/13 A2989 RMK AO2 SLP121 T01780128
 
KPDX - Portland, Oregon, USA
Distance from station: W 69mi, 111km
Updated: Sun, 18-Aug-2019 9:53am PDT
Overcast
Overcast
 Wind from N
Wind: N 3 mph , 6 km/h
Temperature: 64°F , 18°C
Dew Point: 55°F , 13°C
Humidity: 73%
Barometer: 29.89 inHg , 1012.2 hPa
Clouds: Overcast
Visibility: 10 miles , 16 km
Cloud details: Few Clouds 1600 ft
Overcast 3000 ft
2019/08/18 16:53 KPDX 181653Z 35003KT 10SM FEW016 OVC030 18/13 A2989 RMK AO2 SLP121 T01830128
KVUO - Vancouver, Washington, USA
Distance from station: W 71mi, 114km
Updated: Sun, 18-Aug-2019 9:53am PDT
Overcast
Overcast
 Wind from WNW
Wind: WNW 7 mph , 11 km/h
Temperature: 64°F , 18°C
Dew Point: 54°F , 12°C
Humidity: 68%
Barometer: 29.89 inHg , 1012.2 hPa
Clouds: Overcast
Visibility: 10 miles , 16 km
Cloud details: Overcast 3000 ft
2019/08/18 16:53 KVUO 181653Z AUTO 29006KT 10SM OVC030 18/12 A2989 RMK AO2 SLP120 T01830122
 
KYKM - Yakima, Washington, USA
Distance from station: NNE 74mi, 120km
Updated: Sun, 18-Aug-2019 9:53am PDT
Clear
Clear
 Wind from calm
Wind: Calm
Temperature: 72°F , 22°C
Dew Point: 48°F , 9°C
Humidity: 44%
Barometer: 29.82 inHg , 1009.8 hPa
Clouds: Clear
Visibility: 10 miles , 16 km
2019/08/18 16:53 KYKM 181653Z 00000KT 10SM CLR 22/09 A2982 RMK AO2 SLP091 T02170094
KUAO - Aurora, Oregon, USA
Distance from station: WSW 80mi, 129km
Updated: Sun, 18-Aug-2019 9:53am PDT
Overcast
Overcast
 Wind from varies
Wind: varies 3 mph , 6 km/h
Temperature: 64°F , 18°C
Dew Point: 54°F , 12°C
Humidity: 68%
Barometer: 29.90 inHg , 1012.5 hPa
Clouds: Overcast
Visibility: 10 miles , 16 km
Cloud details: Overcast 2800 ft
2019/08/18 16:53 KUAO 181653Z VRB03KT 10SM OVC028 18/12 A2990 RMK AO2 SLP123 T01830122
 
KSPB - Scappoose, Oregon, USA
Distance from station: W 82mi, 132km
Updated: Sun, 18-Aug-2019 9:53am PDT
Overcast
Overcast
 Wind from calm
Wind: Calm
Temperature: 64°F , 18°C
Dew Point: 55°F , 13°C
Humidity: 73%
Barometer: 29.88 inHg , 1011.9 hPa
Clouds: Overcast
Visibility: 10 miles , 16 km
Cloud details: Overcast 2600 ft
2019/08/18 16:53 KSPB 181653Z AUTO 00000KT 10SM OVC026 18/13 A2988 RMK AO2 SLP118 T01830128
KHIO - Hillsboro/Portld, Oregon, USA
Distance from station: W 85mi, 137km
Updated: Sun, 18-Aug-2019 9:53am PDT
Overcast
Overcast
 Wind from calm
Wind: Calm
Temperature: 63°F , 17°C
Dew Point: 54°F , 12°C
Humidity: 73%
Barometer: 29.89 inHg , 1012.2 hPa
Clouds: Overcast
Visibility: 10 miles , 16 km
Cloud details: Overcast 2700 ft
2019/08/18 16:53 KHIO 181653Z 00000KT 10SM OVC027 17/12 A2989 RMK AO2 SLP119 T01720122
 
KKLS - Kelso Longveiw, Washington, USA
Distance from station: WNW 90mi, 145km
Updated: Sun, 18-Aug-2019 9:56am PDT
Overcast
Overcast
 Wind from varies
Wind: varies 3 mph , 6 km/h
Temperature: 64°F , 18°C
Dew Point: 55°F , 13°C
Humidity: 73%
Barometer: 29.90 inHg , 1012.5 hPa
Clouds: Overcast
Visibility: 10 miles , 16 km
Cloud details: Overcast 1700 ft
2019/08/18 16:56 KKLS 181656Z AUTO VRB03KT 10SM OVC017 18/13 A2990 RMK AO2 SLP129 T01780133
KRDM - Redmond, Oregon, USA
Distance from station: S 93mi, 149km
Updated: Sun, 18-Aug-2019 9:56am PDT
Clear
Clear
 Wind from S
Wind: S 7 mph , 11 km/h
Temperature: 73°F , 23°C
Dew Point: 45°F , 7°C
Humidity: 36%
Barometer: 29.89 inHg , 1012.2 hPa
Clouds: Clear
Visibility: 10 miles , 16 km
2019/08/18 16:56 KRDM 181656Z 18006KT 10SM CLR 23/07 A2989 RMK AO2 SLP096 T02330067
 
KHRI - Hermiston, Oregon, USA
Distance from station: E 94mi, 151km
Updated: Sun, 18-Aug-2019 9:53am PDT
Clear
Clear
 Wind from W
Wind: W 6 mph , 9 km/h
Temperature: 72°F , 22°C
Dew Point: 52°F , 11°C
Humidity: 50%
Barometer: 29.82 inHg , 1009.8 hPa
Clouds: Clear
Visibility: 10 miles , 16 km
2019/08/18 16:53 KHRI 181653Z AUTO 26005KT 10SM CLR 22/11 A2982 RMK AO2 SLP094 T02170111
KMMV - Mcminnville, Oregon, USA
Distance from station: WSW 98mi, 158km
Updated: Sun, 18-Aug-2019 9:53am PDT
Overcast
Overcast
 Wind from N
Wind: N 3 mph , 6 km/h
Temperature: 61°F , 16°C
Dew Point: 54°F , 12°C
Humidity: 77%
Barometer: 29.89 inHg , 1012.2 hPa
Clouds: Overcast
Visibility: 10 miles , 16 km
Cloud details: Overcast 2900 ft
2019/08/18 16:53 KMMV 181653Z AUTO 01003KT 10SM OVC029 16/12 A2989 RMK AO2 SLP119 T01560122
 
KSLE - Salem, Oregon, USA
Distance from station: WSW 100mi, 161km
Updated: Sun, 18-Aug-2019 9:56am PDT
Mostly cloudy
Mostly cloudy
 Wind from N
Wind: N 6 mph , 9 km/h
Temperature: 64°F , 18°C
Dew Point: 54°F , 12°C
Humidity: 68%
Barometer: 29.88 inHg , 1011.9 hPa
Clouds: Mostly cloudy
Visibility: 10 miles , 16 km
Cloud details: Mostly cloudy 2600 ft
2019/08/18 16:56 KSLE 181656Z 01005KT 10SM BKN026 18/12 A2988 RMK AO2 SLP116 T01830117
KBDN - Bend, Oregon, USA
Distance from station: S 103mi, 166km
Updated: Sun, 18-Aug-2019 10:35am PDT
Clear
Clear
 Wind from varies
Wind: varies 5 mph , 7 km/h
Temperature: 75°F , 24°C
Dew Point: 43°F , 6°C
Humidity: 31%
Barometer: 29.89 inHg , 1012.2 hPa
Clouds: Clear
Visibility: 10 miles , 16 km
2019/08/18 17:35 KBDN 181735Z AUTO VRB04KT 10SM CLR 24/06 A2989 RMK AO2
 
KELN - Ellensburg, Washington, USA
Distance from station: NNE 104mi, 168km
Updated: Sun, 18-Aug-2019 9:53am PDT
Clear
Clear
 Wind from varies
Wind: varies 3 mph , 6 km/h
Temperature: 72°F , 22°C
Dew Point: 46°F , 8°C
Humidity: 41%
Barometer: 29.82 inHg , 1009.8 hPa
Clouds: Clear
Visibility: 10 miles , 16 km
2019/08/18 16:53 KELN 181653Z AUTO VRB03KT 10SM CLR 22/08 A2982 RMK AO2 SLP089 T02220078
KPSC - Pasco, Washington, USA
Distance from station: ENE 110mi, 177km
Updated: Sun, 18-Aug-2019 9:53am PDT
Clear
Clear
 Wind from SW
Wind: SW 5 mph , 7 km/h
Temperature: 73°F , 23°C
Dew Point: 54°F , 12°C
Humidity: 50%
Barometer: 29.81 inHg , 1009.5 hPa
Clouds: Clear
Visibility: 10 miles , 16 km
2019/08/18 16:53 KPSC 181653Z 22004KT 10SM CLR 23/12 A2981 RMK AO2 SLP092 T02330117
 
KPDT - Pendleton, Oregon, USA
Distance from station: E 114mi, 183km
Updated: Sun, 18-Aug-2019 9:53am PDT
Clear
Clear
 Wind from varies
Wind: varies 5 mph , 7 km/h
Temperature: 72°F , 22°C
Dew Point: 46°F , 8°C
Humidity: 41%
Barometer: 29.84 inHg , 1010.5 hPa
Clouds: Clear
Visibility: 10 miles , 16 km
2019/08/18 16:53 KPDT 181653Z VRB04KT 10SM CLR 22/08 A2984 RMK AO2 SLP092 T02220078
KCLS - Chehalis Central, Washington, USA
Distance from station: NW 115mi, 184km
Updated: Sun, 18-Aug-2019 10:15am PDT
Overcast
Overcast
 Wind from calm
Wind: Calm
Temperature: 68°F , 20°C
Dew Point: 57°F , 14°C
Humidity: 69%
Barometer: 29.90 inHg , 1012.5 hPa
Clouds: Overcast
Visibility: 10 miles , 16 km
Cloud details: Mostly cloudy 2400 ft
Overcast 3200 ft
2019/08/18 17:15 KCLS 181715Z AUTO 00000KT 10SM BKN024 OVC032 20/14 A2990 RMK AO2
 
KPLU - Puyallup/Thun, Washington, USA
Distance from station: NNW 117mi, 188km
Updated: Sun, 18-Aug-2019 10:15am PDT
Overcast
Overcast
 Wind from calm
Wind: Calm
Temperature: 66°F , 19°C
Dew Point: 57°F , 14°C
Humidity: 73%
Barometer: 29.90 inHg , 1012.5 hPa
Clouds: Overcast
Visibility: 10 miles , 16 km
Cloud details: Overcast 2200 ft
2019/08/18 17:15 KPLU 181715Z AUTO 00000KT 10SM OVC022 19/14 A2990 RMK AO2
KCVO - Corvallis Muni A, Oregon, USA
Distance from station: WNW 167mi, 269km
Updated: Sun, 18-Aug-2019 9:56am PDT
Overcast
Overcast
 Wind from ENE
Wind: ENE 9 mph , 15 km/h
Temperature: 68°F , 20°C
Dew Point: 55°F , 13°C
Humidity: 64%
Barometer: 29.89 inHg , 1012.2 hPa
Clouds: Overcast
Visibility: 10 miles , 16 km
Cloud details: Overcast 2400 ft
2019/08/18 16:56 KCVO 181656Z AUTO 06008KT 10SM OVC024 20/13 A2989 RMK AO2 SLP122 T02000128
 
KEUG - Eugene, Oregon, USA
Distance from station: W 193mi, 310km
Updated: Sun, 18-Aug-2019 9:54am PDT
Partly cloudy
Partly cloudy
 Wind from NNE
Wind: NNE 9 mph , 15 km/h
Temperature: 68°F , 20°C
Dew Point: 55°F , 13°C
Humidity: 64%
Barometer: 29.89 inHg , 1012.2 hPa
Clouds: Partly cloudy
Visibility: 10 miles , 16 km
Cloud details: Partly cloudy 1800 ft
2019/08/18 16:54 KEUG 181654Z 03008KT 10SM SCT018 20/13 A2989 RMK AO2 SLP120 T02000128
KRBG - Roseburg, Oregon, USA
Distance from station: WSW 196mi, 315km
Updated: Sun, 18-Aug-2019 9:53am PDT
Clear
Clear
 Wind from varies
Wind: varies 5 mph , 7 km/h
Temperature: 66°F , 19°C
Dew Point: 54°F , 12°C
Humidity: 64%
Barometer: 29.87 inHg , 1011.5 hPa
Clouds: Clear
Visibility: 10 miles , 16 km
2019/08/18 16:53 KRBG 181653Z AUTO VRB04KT 10SM CLR 19/12 A2987 RMK AO2 SLP113 T01940122
 
KLKV - Lakeview, Oregon, USA
Distance from station: SSE 239mi, 385km
Updated: Sun, 18-Aug-2019 9:53am PDT
Clear
Clear
 Wind from varies
Wind: varies 3 mph , 6 km/h
Temperature: 70°F , 21°C
Dew Point: 45°F , 7°C
Humidity: 40%
Barometer: 30.01 inHg , 1016.3 hPa
Clouds: Clear
Visibility: 10 miles , 16 km
2019/08/18 16:53 KLKV 181653Z AUTO VRB03KT 10SM CLR 21/07 A3001 RMK AO2 SLP127 T02110067
KMFR - Medford, Oregon, USA
Distance from station: WSW 241mi, 388km
Updated: Sun, 18-Aug-2019 9:53am PDT
Clear
Clear
 Wind from calm
Wind: Calm
Temperature: 66°F , 19°C
Dew Point: 48°F , 9°C
Humidity: 52%
Barometer: 29.85 inHg , 1010.8 hPa
Clouds: Clear
Visibility: 10 miles , 16 km
2019/08/18 16:53 KMFR 181653Z 00000KT 10SM CLR 19/09 A2985 RMK AO2 SLP098 T01940089
 
KBNO - Burns, Oregon, USA
Distance from station: ESE 249mi, 280km
Updated: Sun, 18-Aug-2019 9:53am PDT
Clear
Clear
 Wind from calm
Wind: Calm
Temperature: 70°F , 21°C
Dew Point: 39°F , 4°C
Humidity: 33%
Barometer: 29.98 inHg , 1015.2 hPa
Clouds: Clear
Visibility: 10 miles , 16 km
2019/08/18 16:53 KBNO 181653Z AUTO 00000KT 10SM CLR 21/04 A2998 RMK AO2 SLP119 T02110044
KLMT - Klamath Falls, Oregon, USA
Distance from station: SSW 266mi, 428km
Updated: Sun, 18-Aug-2019 9:53am PDT
Clear
Clear
 Wind from ESE
Wind: ESE 5 mph , 7 km/h
Temperature: 68°F , 20°C
Dew Point: 46°F , 8°C
Humidity: 46%
Barometer: 29.96 inHg , 1014.6 hPa
Clouds: Clear
Visibility: 10 miles , 16 km
2019/08/18 16:53 KLMT 181653Z 11004KT 10SM CLR 20/08 A2996 RMK AO2 SLP106 T02000083